createdAt,value
2019-05-10T00:00:33.084Z,10.99
2019-05-10T00:02:53.837Z,10.95
2019-05-10T00:05:14.096Z,11.00
2019-05-10T00:07:34.467Z,10.98
2019-05-10T00:09:36.683Z,10.84
2019-05-10T00:12:01.438Z,10.95
2019-05-10T00:14:31.540Z,10.91
2019-05-10T00:16:33.755Z,10.93
2019-05-10T00:18:35.800Z,10.95
2019-05-10T00:20:38.836Z,10.88
2019-05-10T00:22:41.479Z,10.89
2019-05-10T00:24:43.695Z,10.92
2019-05-10T00:26:45.761Z,10.82
2019-05-10T00:28:49.110Z,10.84
2019-05-10T00:30:50.900Z,10.91
2019-05-10T00:32:52.936Z,10.86
2019-05-10T00:34:56.319Z,10.92
2019-05-10T00:36:58.759Z,10.89
2019-05-10T00:39:00.356Z,10.92
2019-05-10T00:41:03.934Z,10.89
2019-05-10T00:43:06.053Z,10.79
2019-05-10T00:45:08.311Z,10.87
2019-05-10T00:47:10.733Z,10.73
2019-05-10T00:49:12.454Z,10.70
2019-05-10T00:51:14.508Z,10.81
2019-05-10T00:53:16.714Z,10.80
2019-05-10T00:55:19.630Z,10.79
2019-05-10T00:57:22.022Z,10.73
2019-05-10T00:59:24.231Z,10.79
2019-05-10T01:01:26.226Z,10.72
2019-05-10T01:03:28.265Z,10.76
2019-05-10T01:05:30.331Z,10.73
2019-05-10T01:07:32.457Z,10.76
2019-05-10T01:09:34.584Z,10.77
2019-05-10T01:11:37.446Z,10.81
2019-05-10T01:13:39.439Z,10.79
2019-05-10T01:15:41.621Z,10.79
2019-05-10T01:17:43.718Z,10.77
2019-05-10T01:19:45.758Z,10.76
2019-05-10T01:21:47.796Z,10.72
2019-05-10T01:23:50.111Z,10.68
2019-05-10T01:25:52.139Z,10.64
2019-05-10T01:27:54.232Z,10.72
2019-05-10T01:29:56.596Z,10.70
2019-05-10T01:31:58.524Z,10.70
2019-05-10T01:34:00.477Z,10.70
2019-05-10T01:36:02.793Z,10.68
2019-05-10T01:38:04.810Z,10.75
2019-05-10T01:40:06.939Z,10.70
2019-05-10T01:42:09.218Z,10.68
2019-05-10T01:44:11.223Z,10.71
2019-05-10T01:46:13.243Z,10.66
2019-05-10T01:48:15.571Z,10.65
2019-05-10T01:50:17.614Z,10.62
2019-05-10T01:52:19.904Z,10.64
2019-05-10T01:54:22.577Z,10.66
2019-05-10T01:56:24.744Z,10.56
2019-05-10T01:58:27.047Z,10.58
2019-05-10T02:00:29.434Z,10.65
2019-05-10T02:02:31.419Z,10.62
2019-05-10T02:04:33.430Z,10.64
2019-05-10T02:06:35.661Z,10.63
2019-05-10T02:08:37.684Z,10.61
2019-05-10T02:10:39.874Z,10.64
2019-05-10T02:12:42.157Z,10.67
2019-05-10T02:14:44.179Z,10.64
2019-05-10T02:16:46.208Z,10.64
2019-05-10T02:18:48.547Z,10.60
2019-05-10T02:20:50.311Z,10.67
2019-05-10T02:22:52.412Z,10.70
2019-05-10T02:24:56.163Z,10.59
2019-05-10T02:26:58.149Z,10.59
2019-05-10T02:29:00.231Z,10.58
2019-05-10T02:31:02.688Z,10.54
2019-05-10T02:33:04.469Z,10.57
2019-05-10T02:35:07.621Z,10.55
2019-05-10T02:37:10.091Z,10.54
2019-05-10T02:39:12.196Z,10.51
2019-05-10T02:41:14.516Z,10.51
2019-05-10T02:43:16.882Z,10.44
2019-05-10T02:45:19.106Z,10.40
2019-05-10T02:47:21.042Z,10.37
2019-05-10T02:49:23.259Z,10.42
2019-05-10T02:51:25.456Z,10.43
2019-05-10T02:53:27.798Z,10.44
2019-05-10T02:55:30.574Z,10.54
2019-05-10T02:57:35.687Z,10.51
2019-05-10T02:59:37.978Z,10.55
2019-05-10T03:01:44.448Z,10.62
2019-05-10T03:03:48.991Z,10.62
2019-05-10T03:05:52.838Z,10.65
2019-05-10T03:07:58.011Z,10.64
2019-05-10T03:10:02.089Z,10.63
2019-05-10T03:12:38.205Z,10.57
2019-05-10T03:14:40.648Z,10.58
2019-05-10T03:16:44.085Z,10.54
2019-05-10T03:18:48.885Z,10.52
2019-05-10T03:20:54.830Z,10.50
2019-05-10T03:22:57.415Z,10.46
2019-05-10T03:24:59.412Z,10.47
2019-05-10T03:27:01.716Z,10.40
2019-05-10T03:29:05.601Z,10.37
2019-05-10T03:31:07.613Z,10.37
2019-05-10T03:33:09.849Z,10.38
2019-05-10T03:35:12.186Z,10.39
2019-05-10T03:37:14.669Z,10.35
2019-05-10T03:39:16.621Z,10.44
2019-05-10T03:41:18.838Z,10.47
2019-05-10T03:43:20.867Z,10.47
2019-05-10T03:45:25.505Z,10.41
2019-05-10T03:47:27.532Z,10.38
2019-05-10T03:49:29.600Z,10.40
2019-05-10T03:51:31.740Z,10.39
2019-05-10T03:53:33.803Z,10.44
2019-05-10T03:55:35.866Z,10.50
2019-05-10T03:57:38.589Z,10.49
2019-05-10T03:59:41.541Z,10.51
2019-05-10T04:01:43.871Z,10.45
2019-05-10T04:03:46.129Z,10.52
2019-05-10T04:05:48.176Z,10.54
2019-05-10T04:07:50.292Z,10.52
2019-05-10T04:09:52.805Z,10.51
2019-05-10T04:11:54.835Z,10.50
2019-05-10T04:13:56.817Z,10.47
2019-05-10T04:15:58.866Z,10.42
2019-05-10T04:18:01.275Z,10.45
2019-05-10T04:20:04.469Z,10.48
2019-05-10T04:22:06.487Z,10.47
2019-05-10T04:24:09.625Z,10.41
2019-05-10T04:26:11.666Z,10.49
2019-05-10T04:28:13.850Z,10.52
2019-05-10T04:30:16.881Z,10.50
2019-05-10T04:32:18.878Z,10.45
2019-05-10T04:34:21.243Z,10.42
2019-05-10T04:36:22.885Z,10.42
2019-05-10T04:38:25.101Z,10.50
2019-05-10T04:40:27.455Z,10.50
2019-05-10T04:42:30.846Z,10.46
2019-05-10T04:44:32.912Z,10.54
2019-05-10T04:46:35.348Z,10.59
2019-05-10T04:48:37.282Z,10.62
2019-05-10T04:50:39.354Z,10.58
2019-05-10T04:52:41.523Z,10.51
2019-05-10T04:54:43.721Z,10.56
2019-05-10T04:56:45.758Z,10.56
2019-05-10T04:58:48.239Z,10.57
2019-05-10T05:00:52.792Z,10.51
2019-05-10T05:02:54.842Z,10.54
2019-05-10T05:04:57.583Z,10.63
2019-05-10T05:06:59.694Z,10.69
2019-05-10T05:09:02.198Z,10.67
2019-05-10T05:11:05.729Z,10.74
2019-05-10T05:13:07.746Z,10.78
2019-05-10T05:15:10.342Z,10.86
2019-05-10T05:17:12.829Z,10.90
2019-05-10T05:19:14.489Z,10.88
2019-05-10T05:21:16.544Z,10.84
2019-05-10T05:23:19.043Z,10.83
2019-05-10T05:25:22.127Z,10.93
2019-05-10T05:27:24.519Z,11.00
2019-05-10T05:29:27.026Z,11.01
2019-05-10T05:31:28.605Z,10.90
2019-05-10T05:33:30.659Z,10.95
2019-05-10T05:35:33.452Z,11.00
2019-05-10T05:37:35.619Z,11.05
2019-05-10T05:39:37.665Z,10.89
2019-05-10T05:41:49.062Z,10.91
2019-05-10T05:43:46.312Z,10.91
2019-05-10T05:45:47.909Z,10.90
2019-05-10T05:47:50.007Z,10.84
2019-05-10T05:49:52.661Z,10.91
2019-05-10T05:51:54.661Z,10.97
2019-05-10T05:55:48.697Z,11.07
2019-05-10T05:57:50.254Z,10.96
2019-05-10T05:59:57.351Z,11.15
2019-05-10T06:02:00.913Z,11.12
2019-05-10T06:04:06.305Z,11.23
2019-05-10T06:06:15.335Z,11.20
2019-05-10T06:08:23.039Z,11.23
2019-05-10T06:10:19.587Z,11.23
2019-05-10T06:12:20.672Z,11.43
2019-05-10T06:14:22.735Z,11.44
2019-05-10T06:16:25.099Z,11.55
2019-05-10T06:18:27.272Z,11.58
2019-05-10T06:20:29.513Z,11.51
2019-05-10T06:22:31.698Z,11.54
2019-05-10T06:24:34.425Z,11.63
2019-05-10T06:26:36.931Z,11.65
2019-05-10T06:30:43.365Z,11.65
2019-05-10T06:32:45.872Z,11.86
2019-05-10T06:34:47.597Z,11.99
2019-05-10T06:36:49.890Z,12.17
2019-05-10T06:38:52.176Z,12.22
2019-05-10T06:40:54.209Z,12.07
2019-05-10T06:42:56.196Z,12.53
2019-05-10T06:45:05.062Z,12.34
2019-05-10T06:47:08.267Z,12.18
2019-05-10T06:49:10.907Z,12.26
2019-05-10T06:51:12.737Z,12.08
2019-05-10T06:53:15.084Z,12.29
2019-05-10T06:55:17.266Z,12.39
2019-05-10T06:57:19.537Z,12.37
2019-05-10T06:59:24.769Z,12.43
2019-05-10T07:01:25.788Z,12.59
2019-05-10T07:03:27.972Z,12.63
2019-05-10T07:05:30.050Z,12.49
2019-05-10T07:07:43.383Z,12.72
2019-05-10T07:10:01.069Z,12.95
2019-05-10T07:11:40.344Z,13.26
2019-05-10T07:13:47.205Z,13.16
2019-05-10T07:15:46.801Z,13.18
2019-05-10T07:17:48.845Z,13.18
2019-05-10T07:19:54.863Z,13.02
2019-05-10T07:21:54.929Z,12.79
2019-05-10T07:23:57.147Z,13.00
2019-05-10T07:25:59.210Z,13.07
2019-05-10T07:28:01.528Z,13.11
2019-05-10T07:30:03.960Z,13.32
2019-05-10T07:32:05.866Z,13.31
2019-05-10T07:34:09.863Z,13.14
2019-05-10T07:36:15.249Z,12.92
2019-05-10T07:38:16.102Z,12.90
2019-05-10T07:40:19.006Z,13.04
2019-05-10T07:42:21.030Z,12.96
2019-05-10T07:44:23.082Z,13.16
2019-05-10T07:46:25.305Z,12.89
2019-05-10T07:48:27.314Z,12.64
2019-05-10T07:50:29.427Z,12.75
2019-05-10T07:52:36.766Z,12.72
2019-05-10T07:54:37.705Z,12.83
2019-05-10T07:56:45.676Z,12.77
2019-05-10T07:58:44.932Z,12.79
2019-05-10T08:00:47.134Z,12.81
2019-05-10T08:02:59.246Z,12.87
2019-05-10T08:04:54.607Z,12.76
2019-05-10T08:06:59.689Z,12.79
2019-05-10T08:09:06.277Z,12.55
2019-05-10T08:11:05.892Z,12.54
2019-05-10T08:13:10.219Z,12.42
2019-05-10T08:15:12.170Z,12.71
2019-05-10T08:17:14.375Z,12.70
2019-05-10T08:19:16.426Z,12.77
2019-05-10T08:21:22.438Z,12.70
2019-05-10T08:23:26.579Z,12.77
2019-05-10T08:25:28.974Z,13.03
2019-05-10T08:27:32.468Z,13.15
2019-05-10T08:29:34.814Z,13.10
2019-05-10T08:31:40.385Z,12.77
2019-05-10T08:33:46.279Z,12.85
2019-05-10T08:35:46.506Z,12.65
2019-05-10T08:37:49.283Z,12.60
2019-05-10T08:39:55.833Z,12.71
2019-05-10T08:42:04.060Z,12.88
2019-05-10T08:44:02.405Z,12.96
2019-05-10T08:46:04.033Z,13.08
2019-05-10T08:48:07.163Z,13.24
2019-05-10T08:50:22.324Z,13.30
2019-05-10T08:52:13.809Z,13.37
2019-05-10T08:54:16.152Z,13.24
2019-05-10T08:56:23.413Z,13.31
2019-05-10T08:58:31.353Z,13.47
2019-05-10T09:00:41.609Z,13.53
2019-05-10T09:02:34.540Z,13.36
2019-05-10T09:04:42.721Z,13.61
2019-05-10T09:06:42.027Z,14.00
2019-05-10T09:08:44.201Z,14.17
2019-05-10T09:10:46.207Z,14.84
2019-05-10T09:12:54.391Z,15.71
2019-05-10T09:14:57.350Z,15.94
2019-05-10T09:17:03.457Z,15.78
2019-05-10T09:19:02.564Z,15.79
2019-05-10T09:21:08.756Z,16.21
2019-05-10T09:23:15.257Z,15.96
2019-05-10T09:25:14.168Z,15.97
2019-05-10T09:27:16.240Z,16.11
2019-05-10T09:29:18.259Z,16.10
2019-05-10T09:31:24.846Z,16.03
2019-05-10T09:33:24.580Z,15.67
2019-05-10T09:35:26.690Z,15.65
2019-05-10T09:37:29.001Z,15.96
2019-05-10T09:39:32.150Z,15.37
2019-05-10T09:41:38.195Z,15.22
2019-05-10T09:43:40.491Z,15.37
2019-05-10T09:45:42.563Z,15.34
2019-05-10T09:47:44.874Z,15.62
2019-05-10T09:49:54.050Z,15.59
2019-05-10T09:51:52.511Z,15.52
2019-05-10T09:53:57.628Z,15.54
2019-05-10T09:56:03.139Z,15.41
2019-05-10T09:58:04.493Z,15.44
2019-05-10T10:00:08.429Z,15.41
2019-05-10T10:02:15.648Z,15.38
2019-05-10T10:04:17.881Z,15.61
2019-05-10T10:06:19.552Z,15.62
2019-05-10T10:08:22.969Z,15.68
2019-05-10T10:10:30.101Z,15.33
2019-05-10T10:12:29.088Z,15.33
2019-05-10T10:14:37.803Z,15.72
2019-05-10T10:16:35.515Z,16.00
2019-05-10T10:18:37.814Z,16.27
2019-05-10T10:20:43.867Z,16.11
2019-05-10T10:22:52.628Z,15.67
2019-05-10T10:24:48.961Z,15.53
2019-05-10T10:26:53.923Z,15.91
2019-05-10T10:28:59.547Z,15.46
2019-05-10T10:31:05.112Z,15.62
2019-05-10T10:33:05.649Z,15.82
2019-05-10T10:35:13.374Z,16.09
2019-05-10T10:37:14.601Z,16.24
2019-05-10T10:39:22.890Z,16.26
2019-05-10T10:41:25.867Z,15.92
2019-05-10T10:43:27.210Z,15.34
2019-05-10T10:45:29.781Z,15.76
2019-05-10T10:47:32.351Z,15.73
2019-05-10T10:49:34.325Z,15.62
2019-05-10T10:51:37.903Z,15.97
2019-05-10T10:53:40.480Z,15.72
2019-05-10T10:55:46.074Z,15.14
2019-05-10T10:57:48.281Z,14.88
2019-05-10T10:59:50.347Z,14.99
2019-05-10T11:02:25.322Z,15.66
2019-05-10T11:03:56.538Z,15.71
2019-05-10T11:05:58.632Z,15.39
2019-05-10T11:08:01.174Z,15.24
2019-05-10T11:10:14.931Z,14.97
2019-05-10T11:12:08.005Z,14.82
2019-05-10T11:14:11.089Z,15.01
2019-05-10T11:16:15.639Z,15.17
2019-05-10T11:18:17.516Z,14.94
2019-05-10T11:20:21.601Z,15.38
2019-05-10T11:22:27.200Z,15.98
2019-05-10T11:24:28.083Z,15.66
2019-05-10T11:26:32.901Z,15.85
2019-05-10T11:28:44.186Z,15.62
2019-05-10T11:30:38.643Z,15.73
2019-05-10T11:32:41.880Z,15.91
2019-05-10T11:34:44.477Z,15.49
2019-05-10T11:36:48.346Z,15.72
2019-05-10T11:38:56.917Z,15.78
2019-05-10T11:40:54.854Z,15.56
2019-05-10T11:42:57.017Z,15.12
2019-05-10T11:45:00.766Z,15.31
2019-05-10T11:47:03.143Z,14.97
2019-05-10T11:49:05.579Z,14.91
2019-05-10T11:51:12.343Z,15.23
2019-05-10T11:53:13.308Z,15.01
2019-05-10T11:55:15.385Z,15.22
2019-05-10T11:57:17.705Z,14.98
2019-05-10T11:59:21.836Z,15.04
2019-05-10T12:01:24.077Z,14.85
2019-05-10T12:03:27.397Z,14.85
2019-05-10T12:05:31.973Z,15.03
2019-05-10T12:07:42.440Z,15.21
2019-05-10T12:09:38.084Z,15.51
2019-05-10T12:11:51.245Z,15.49
2019-05-10T12:13:44.109Z,15.49
2019-05-10T12:15:46.093Z,15.33
2019-05-10T12:19:56.356Z,14.88
2019-05-10T12:22:07.789Z,14.78
2019-05-10T12:24:26.314Z,15.11
2019-05-10T12:26:05.336Z,15.02
2019-05-10T12:28:24.435Z,15.08
2019-05-10T12:30:23.971Z,14.85
2019-05-10T12:32:26.958Z,15.09
2019-05-10T12:34:31.139Z,15.12
2019-05-10T12:36:33.952Z,14.90
2019-05-10T12:38:36.573Z,14.89
2019-05-10T12:40:41.746Z,15.00
2019-05-10T12:42:46.917Z,14.93
2019-05-10T12:44:48.221Z,14.87
2019-05-10T12:46:54.073Z,14.64
2019-05-10T12:48:55.123Z,14.62
2019-05-10T12:51:02.011Z,14.61
2019-05-10T12:53:12.654Z,14.54
2019-05-10T12:55:05.502Z,14.88
2019-05-10T12:57:07.148Z,14.99
2019-05-10T12:59:09.099Z,15.38
2019-05-10T13:01:12.508Z,15.73
2019-05-10T13:03:19.009Z,15.36
2019-05-10T13:05:19.640Z,15.48
2019-05-10T13:07:23.818Z,15.40
2019-05-10T13:09:38.043Z,14.89
2019-05-10T13:11:29.783Z,14.37
2019-05-10T13:13:31.956Z,14.28
2019-05-10T13:15:34.013Z,14.57
2019-05-10T13:17:35.985Z,14.33
2019-05-10T13:19:38.235Z,14.33
2019-05-10T13:21:40.218Z,14.45
2019-05-10T13:23:42.230Z,14.55
2019-05-10T13:25:44.437Z,14.80
2019-05-10T13:27:46.480Z,14.69
2019-05-10T13:29:53.325Z,14.68
2019-05-10T13:31:52.759Z,15.13
2019-05-10T13:33:56.681Z,15.39
2019-05-10T13:35:59.080Z,15.19
2019-05-10T13:38:03.779Z,15.23
2019-05-10T13:40:07.965Z,15.42
2019-05-10T13:42:09.887Z,14.93
2019-05-10T13:44:12.507Z,14.72
2019-05-10T13:46:14.566Z,14.37
2019-05-10T13:48:16.732Z,14.73
2019-05-10T13:50:19.110Z,14.55
2019-05-10T13:52:20.951Z,14.58
2019-05-10T13:54:23.040Z,14.55
2019-05-10T13:56:25.497Z,14.72
2019-05-10T13:58:30.137Z,14.67
2019-05-10T14:00:36.086Z,14.86
2019-05-10T14:02:38.925Z,14.68
2019-05-10T14:04:40.930Z,14.97
2019-05-10T14:06:42.994Z,15.26
2019-05-10T14:08:48.413Z,15.33
2019-05-10T14:10:49.936Z,15.09
2019-05-10T14:12:55.995Z,14.97
2019-05-10T14:15:02.409Z,14.91
2019-05-10T14:17:00.308Z,14.92
2019-05-10T14:19:02.299Z,14.79
2019-05-10T14:21:04.556Z,14.82
2019-05-10T14:23:06.751Z,14.88
2019-05-10T14:25:10.123Z,14.78
2019-05-10T14:27:12.706Z,14.72
2019-05-10T14:29:14.741Z,14.61
2019-05-10T14:31:16.739Z,14.51
2019-05-10T14:33:20.422Z,14.37
2019-05-10T14:35:22.835Z,14.47
2019-05-10T14:37:25.883Z,14.62
2019-05-10T14:39:27.891Z,14.55
2019-05-10T14:41:30.182Z,14.41
2019-05-10T14:43:32.161Z,14.27
2019-05-10T14:45:34.436Z,14.22
2019-05-10T14:47:46.741Z,14.32
2019-05-10T14:49:46.455Z,14.48
2019-05-10T14:51:58.455Z,14.17
2019-05-10T14:53:48.888Z,14.46
2019-05-10T14:55:50.885Z,14.50
2019-05-10T14:57:53.262Z,14.18
2019-05-10T14:59:55.346Z,14.46
2019-05-10T15:01:57.524Z,14.19
2019-05-10T15:03:59.846Z,14.19
2019-05-10T15:06:02.079Z,14.37
2019-05-10T15:08:04.330Z,14.47
2019-05-10T15:10:06.983Z,14.72
2019-05-10T15:12:10.312Z,14.54
2019-05-10T15:14:14.390Z,14.62
2019-05-10T15:16:26.027Z,14.58
2019-05-10T15:18:20.674Z,14.31
2019-05-10T15:20:22.728Z,14.19
2019-05-10T15:22:25.689Z,14.11
2019-05-10T15:24:27.737Z,14.06
2019-05-10T15:26:29.872Z,14.06
2019-05-10T15:28:34.520Z,14.20
2019-05-10T15:30:39.387Z,14.06
2019-05-10T15:32:40.404Z,14.03
2019-05-10T15:35:03.864Z,14.04
2019-05-10T15:36:48.457Z,13.94
2019-05-10T15:38:52.300Z,13.86
2019-05-10T15:40:54.800Z,13.87
2019-05-10T15:42:56.837Z,14.00
2019-05-10T15:45:05.241Z,14.14
2019-05-10T15:47:03.316Z,14.01
2019-05-10T15:49:06.722Z,13.89
2019-05-10T15:51:11.102Z,14.16
2019-05-10T15:53:12.892Z,14.19
2019-05-10T15:55:16.479Z,14.23
2019-05-10T15:57:21.669Z,14.23
2019-05-10T15:59:24.584Z,14.40
2019-05-10T16:01:28.982Z,14.11
2019-05-10T16:03:30.509Z,13.99
2019-05-10T16:05:43.127Z,13.88
2019-05-10T16:07:37.101Z,13.86
2019-05-10T16:09:39.525Z,14.17
2019-05-10T16:11:41.697Z,14.11
2019-05-10T16:13:43.710Z,14.02
2019-05-10T16:15:45.699Z,14.11
2019-05-10T16:17:47.928Z,14.18
2019-05-10T16:19:50.954Z,14.22
2019-05-10T16:21:58.036Z,14.11
2019-05-10T16:23:59.178Z,14.02
2019-05-10T16:26:01.621Z,13.76
2019-05-10T16:28:03.634Z,13.62
2019-05-10T16:30:11.874Z,13.60
2019-05-10T16:32:11.641Z,13.71
2019-05-10T16:34:13.647Z,13.73
2019-05-10T16:36:16.089Z,13.72
2019-05-10T16:38:18.085Z,13.77
2019-05-10T16:40:20.289Z,13.56
2019-05-10T16:42:27.784Z,13.72
2019-05-10T16:44:27.481Z,13.72
2019-05-10T16:46:29.611Z,13.82
2019-05-10T16:48:31.914Z,13.94
2019-05-10T16:50:33.985Z,13.82
2019-05-10T16:52:37.104Z,13.61
2019-05-10T16:54:39.329Z,13.59
2019-05-10T16:56:41.980Z,13.58
2019-05-10T16:58:47.515Z,13.42
2019-05-10T17:00:49.249Z,13.48
2019-05-10T17:02:51.224Z,13.52
2019-05-10T17:04:53.424Z,13.53
2019-05-10T17:06:58.467Z,13.48
2019-05-10T17:08:59.627Z,13.32
2019-05-10T17:11:09.494Z,13.32
2019-05-10T17:13:06.687Z,13.41
2019-05-10T17:15:08.872Z,13.35
2019-05-10T17:17:10.868Z,13.30
2019-05-10T17:19:13.288Z,13.26
2019-05-10T17:21:15.632Z,13.06
2019-05-10T17:23:17.836Z,13.22
2019-05-10T17:25:22.623Z,13.00
2019-05-10T17:27:24.163Z,12.90
2019-05-10T17:29:26.588Z,12.90
2019-05-10T17:31:28.835Z,12.75
2019-05-10T17:33:30.830Z,12.75
2019-05-10T17:35:36.891Z,12.97
2019-05-10T17:37:37.539Z,12.96
2019-05-10T17:39:39.677Z,13.04
2019-05-10T17:41:41.853Z,12.94
2019-05-10T17:43:44.063Z,12.65
2019-05-10T17:45:46.334Z,12.67
2019-05-10T17:47:48.295Z,12.78
2019-05-10T17:49:52.330Z,12.81
2019-05-10T17:51:54.341Z,12.63
2019-05-10T17:54:01.529Z,12.75
2019-05-10T17:56:02.917Z,12.77
2019-05-10T17:58:04.484Z,12.96
2019-05-10T18:00:07.457Z,12.72
2019-05-10T18:02:09.637Z,12.78
2019-05-10T18:04:11.632Z,12.64
2019-05-10T18:06:23.613Z,12.50
2019-05-10T18:08:18.934Z,12.39
2019-05-10T18:10:20.996Z,12.46
2019-05-10T18:12:27.007Z,12.41
2019-05-10T18:14:29.524Z,12.50
2019-05-10T18:16:31.568Z,12.44
2019-05-10T18:18:35.162Z,12.36
2019-05-10T18:20:42.086Z,12.28
2019-05-10T18:22:45.033Z,12.27
2019-05-10T18:24:45.953Z,12.29
2019-05-10T18:26:48.367Z,12.25
2019-05-10T18:28:50.379Z,12.25
2019-05-10T18:30:52.704Z,12.18
2019-05-10T18:32:54.966Z,12.24
2019-05-10T18:34:57.065Z,12.13
2019-05-10T18:36:59.175Z,12.10
2019-05-10T18:39:01.460Z,12.11
2019-05-10T18:41:05.454Z,12.05
2019-05-10T18:43:07.939Z,12.07
2019-05-10T18:45:11.836Z,11.96
2019-05-10T18:47:14.012Z,11.95
2019-05-10T18:49:16.047Z,12.08
2019-05-10T18:51:24.499Z,12.27
2019-05-10T18:53:22.324Z,12.13
2019-05-10T18:55:24.373Z,12.24
2019-05-10T18:57:26.872Z,12.05
2019-05-10T18:59:30.547Z,11.88
2019-05-10T19:01:38.533Z,11.89
2019-05-10T19:03:36.834Z,12.03
2019-05-10T19:05:39.041Z,11.97
2019-05-10T19:07:41.289Z,11.88
2019-05-10T19:09:43.447Z,11.88
2019-05-10T19:11:45.729Z,11.75
2019-05-10T19:13:53.766Z,11.66
2019-05-10T19:15:57.812Z,11.59
2019-05-10T19:17:57.002Z,11.65
2019-05-10T19:19:59.799Z,11.39
2019-05-10T19:22:02.991Z,11.49
2019-05-10T19:24:05.747Z,11.57
2019-05-10T19:26:08.049Z,11.54
2019-05-10T19:28:10.286Z,11.57
2019-05-10T19:30:12.568Z,11.50
2019-05-10T19:32:18.044Z,11.47
2019-05-10T19:34:18.857Z,11.45
2019-05-10T19:36:20.866Z,11.46
2019-05-10T19:38:23.156Z,11.48
2019-05-10T19:40:25.299Z,11.63
2019-05-10T19:42:31.195Z,11.67
2019-05-10T19:44:34.543Z,11.55
2019-05-10T19:46:39.370Z,11.53
2019-05-10T19:48:40.846Z,11.41
2019-05-10T19:50:43.106Z,11.44
2019-05-10T19:52:45.376Z,11.40
2019-05-10T19:54:47.506Z,11.34
2019-05-10T19:56:49.809Z,11.38
2019-05-10T19:58:51.825Z,11.44
2019-05-10T20:00:53.887Z,11.49
2019-05-10T20:02:56.098Z,11.45
2019-05-10T20:04:58.376Z,11.34
2019-05-10T20:07:00.393Z,11.39
2019-05-10T20:09:05.403Z,11.31
2019-05-10T20:11:07.484Z,11.39
2019-05-10T20:13:09.827Z,11.42
2019-05-10T20:15:12.366Z,11.33
2019-05-10T20:17:14.492Z,11.40
2019-05-10T20:19:16.517Z,11.35
2019-05-10T20:21:18.662Z,11.23
2019-05-10T20:23:20.906Z,11.18
2019-05-10T20:25:23.002Z,11.22
2019-05-10T20:27:25.257Z,11.33
2019-05-10T20:29:27.493Z,11.33
2019-05-10T20:31:30.720Z,11.19
2019-05-10T20:33:36.260Z,11.24
2019-05-10T20:35:39.342Z,11.08
2019-05-10T20:37:41.519Z,11.03
2019-05-10T20:39:43.768Z,11.07
2019-05-10T20:41:45.805Z,11.00
2019-05-10T20:43:47.820Z,11.05
2019-05-10T20:45:50.059Z,11.03
2019-05-10T20:47:52.102Z,10.90
2019-05-10T20:49:54.298Z,10.98
2019-05-10T20:51:56.833Z,10.94
2019-05-10T20:53:59.050Z,10.90
2019-05-10T20:56:04.212Z,10.84
2019-05-10T20:58:06.893Z,10.93
2019-05-10T21:00:09.268Z,10.89
2019-05-10T21:02:11.879Z,10.89
2019-05-10T21:04:14.258Z,10.85
2019-05-10T21:06:16.348Z,10.81
2019-05-10T21:08:19.584Z,10.88
2019-05-10T21:10:22.079Z,10.84
2019-05-10T21:12:23.832Z,10.97
2019-05-10T21:14:28.624Z,10.92
2019-05-10T21:16:30.818Z,10.87
2019-05-10T21:18:32.723Z,10.84
2019-05-10T21:20:34.694Z,10.88
2019-05-10T21:22:36.999Z,10.88
2019-05-10T21:24:39.112Z,10.84
2019-05-10T21:26:41.116Z,10.84
2019-05-10T21:28:43.732Z,10.89
2019-05-10T21:30:45.768Z,10.90
2019-05-10T21:32:47.847Z,10.91
2019-05-10T21:34:50.193Z,10.88
2019-05-10T21:36:52.238Z,10.88
2019-05-10T21:38:54.333Z,10.88
2019-05-10T21:40:56.720Z,10.88
2019-05-10T21:42:58.945Z,10.82
2019-05-10T21:45:00.955Z,10.73
2019-05-10T21:47:02.978Z,10.78
2019-05-10T21:49:05.017Z,10.76
2019-05-10T21:51:07.293Z,10.66
2019-05-10T21:53:11.418Z,10.65
2019-05-10T21:55:13.511Z,10.71
2019-05-10T21:57:16.966Z,10.69
2019-05-10T21:59:19.057Z,10.61
2019-05-10T22:01:21.424Z,10.56
2019-05-10T22:03:23.092Z,10.53
2019-05-10T22:05:25.420Z,10.56
2019-05-10T22:07:27.402Z,10.61
2019-05-10T22:09:29.887Z,10.66
2019-05-10T22:11:32.108Z,10.61
2019-05-10T22:13:34.508Z,10.61
2019-05-10T22:15:36.676Z,10.54
2019-05-10T22:17:38.922Z,10.56
2019-05-10T22:19:42.180Z,10.58
2019-05-10T22:21:44.198Z,10.54
2019-05-10T22:23:46.442Z,10.57
2019-05-10T22:25:48.432Z,10.55
2019-05-10T22:27:50.476Z,10.58
2019-05-10T22:29:52.618Z,10.56
2019-05-10T22:31:54.668Z,10.56
2019-05-10T22:33:57.309Z,10.51
2019-05-10T22:35:59.631Z,10.50
2019-05-10T22:38:01.477Z,10.43
2019-05-10T22:40:03.935Z,10.42
2019-05-10T22:42:05.881Z,10.40
2019-05-10T22:44:10.892Z,10.39
2019-05-10T22:46:12.904Z,10.38
2019-05-10T22:48:14.908Z,10.42
2019-05-10T22:50:17.042Z,10.42
2019-05-10T22:52:19.047Z,10.35
2019-05-10T22:54:21.303Z,10.38
2019-05-10T22:56:24.433Z,10.30
2019-05-10T22:58:26.482Z,10.29
2019-05-10T23:00:28.819Z,10.30
2019-05-10T23:02:30.930Z,10.22
2019-05-10T23:04:32.956Z,10.18
2019-05-10T23:06:35.112Z,10.20
2019-05-10T23:08:37.554Z,10.20
2019-05-10T23:10:39.183Z,10.25
2019-05-10T23:12:41.397Z,10.11
2019-05-10T23:14:43.546Z,10.13
2019-05-10T23:16:45.578Z,10.15
2019-05-10T23:18:47.982Z,10.05
2019-05-10T23:20:49.947Z,10.06
2019-05-10T23:22:52.043Z,10.08
2019-05-10T23:24:54.286Z,10.07
2019-05-10T23:26:56.418Z,10.02
2019-05-10T23:28:58.445Z,10.04
2019-05-10T23:31:00.694Z,10.02
2019-05-10T23:33:02.835Z,10.03
2019-05-10T23:35:06.672Z,10.01
2019-05-10T23:37:08.912Z,9.93
2019-05-10T23:39:11.008Z,9.90
2019-05-10T23:41:13.123Z,9.90
2019-05-10T23:43:15.512Z,9.96
2019-05-10T23:45:18.844Z,9.95
2019-05-10T23:47:20.853Z,10.00
2019-05-10T23:49:23.326Z,10.00
2019-05-10T23:51:25.009Z,9.90
2019-05-10T23:53:27.042Z,9.81
2019-05-10T23:56:19.574Z,9.85
2019-05-10T23:58:21.592Z,9.80
